createdAt,value
2023-04-16T00:00:41.929Z,8.70
2023-04-16T00:03:09.995Z,8.63
2023-04-16T00:05:37.633Z,8.63
2023-04-16T00:08:05.149Z,8.63
2023-04-16T00:10:34.153Z,8.64
2023-04-16T00:13:01.702Z,8.66
2023-04-16T00:15:29.214Z,8.67
2023-04-16T00:17:57.038Z,8.69
2023-04-16T00:20:24.556Z,8.65
2023-04-16T00:22:52.024Z,8.64
2023-04-16T00:25:19.795Z,8.62
2023-04-16T00:27:47.262Z,8.61
2023-04-16T00:30:15.064Z,8.56
2023-04-16T00:32:42.851Z,8.55
2023-04-16T00:35:10.457Z,8.58
2023-04-16T00:37:37.985Z,8.57
2023-04-16T00:40:06.531Z,8.61
2023-04-16T00:42:34.977Z,8.63
2023-04-16T00:45:02.609Z,8.72
2023-04-16T00:47:31.151Z,8.71
2023-04-16T00:49:58.740Z,8.69
2023-04-16T00:52:27.593Z,8.60
2023-04-16T00:54:56.542Z,8.55
2023-04-16T00:57:24.090Z,8.54
2023-04-16T00:59:51.760Z,8.51
2023-04-16T01:02:19.734Z,8.52
2023-04-16T01:04:47.297Z,8.52
2023-04-16T01:07:14.887Z,8.50
2023-04-16T01:09:44.900Z,8.50
2023-04-16T01:12:12.419Z,8.50
2023-04-16T01:14:39.962Z,8.48
2023-04-16T01:17:07.814Z,8.49
2023-04-16T01:19:36.444Z,8.43
2023-04-16T01:22:04.846Z,8.37
2023-04-16T01:24:32.623Z,8.29
2023-04-16T01:27:00.246Z,8.28
2023-04-16T01:29:28.027Z,8.32
2023-04-16T01:31:56.426Z,8.38
2023-04-16T01:34:25.340Z,8.36
2023-04-16T01:36:53.003Z,8.41
2023-04-16T01:39:21.107Z,8.42
2023-04-16T01:41:48.682Z,8.31
2023-04-16T01:44:16.252Z,8.21
2023-04-16T01:46:45.127Z,8.09
2023-04-16T01:49:12.782Z,7.96
2023-04-16T01:51:40.329Z,7.91
2023-04-16T01:54:08.227Z,7.82
2023-04-16T01:56:35.869Z,7.85
2023-04-16T01:59:03.417Z,7.82
2023-04-16T02:01:31.923Z,7.84
2023-04-16T02:04:00.297Z,7.81
2023-04-16T02:06:27.983Z,7.86
2023-04-16T02:08:55.889Z,7.83
2023-04-16T02:11:23.742Z,7.87
2023-04-16T02:13:51.470Z,7.89
2023-04-16T02:16:19.148Z,7.89
2023-04-16T02:18:47.829Z,7.87
2023-04-16T02:21:16.362Z,7.88
2023-04-16T02:23:47.642Z,7.89
2023-04-16T02:26:16.170Z,7.93
2023-04-16T02:28:43.813Z,8.01
2023-04-16T02:31:11.857Z,8.05
2023-04-16T02:33:40.236Z,8.15
2023-04-16T02:36:08.097Z,8.22
2023-04-16T02:38:37.557Z,8.29
2023-04-16T02:41:05.590Z,8.32
2023-04-16T02:43:34.199Z,8.42
2023-04-16T02:46:02.582Z,8.36
2023-04-16T02:48:30.519Z,8.32
2023-04-16T02:50:58.031Z,8.28
2023-04-16T02:53:25.654Z,8.27
2023-04-16T02:55:54.888Z,8.22
2023-04-16T02:58:24.283Z,8.22
2023-04-16T03:00:53.906Z,8.21
2023-04-16T03:03:22.122Z,8.19
2023-04-16T03:05:49.721Z,8.16
2023-04-16T03:08:17.242Z,8.16
2023-04-16T03:10:45.045Z,8.17
2023-04-16T03:13:12.581Z,8.19
2023-04-16T03:15:40.413Z,8.22
2023-04-16T03:18:08.185Z,8.24
2023-04-16T03:20:35.825Z,8.35
2023-04-16T03:23:03.324Z,8.42
2023-04-16T03:25:31.124Z,8.50
2023-04-16T03:27:58.842Z,8.52
2023-04-16T03:30:27.049Z,8.59
2023-04-16T03:32:54.856Z,8.59
2023-04-16T03:35:22.458Z,8.61
2023-04-16T03:37:50.616Z,8.67
2023-04-16T03:40:18.633Z,8.65
2023-04-16T03:42:46.228Z,8.69
2023-04-16T03:45:13.692Z,8.70
2023-04-16T03:47:42.192Z,8.65
2023-04-16T03:50:11.738Z,8.65
2023-04-16T03:52:39.762Z,8.59
2023-04-16T03:55:08.044Z,8.57
2023-04-16T03:57:35.670Z,8.58
2023-04-16T04:00:03.588Z,8.60
2023-04-16T04:02:42.008Z,8.56
2023-04-16T04:05:11.121Z,8.55
2023-04-16T04:07:38.787Z,8.55
2023-04-16T04:10:07.109Z,8.57
2023-04-16T04:12:35.752Z,8.55
2023-04-16T04:15:03.423Z,8.63
2023-04-16T04:17:30.936Z,8.56
2023-04-16T04:20:01.303Z,8.61
2023-04-16T04:22:29.776Z,8.63
2023-04-16T04:24:57.292Z,8.56
2023-04-16T04:27:27.292Z,8.57
2023-04-16T04:29:54.828Z,8.62
2023-04-16T04:32:22.833Z,8.64
2023-04-16T04:34:50.684Z,8.68
2023-04-16T04:37:18.225Z,8.66
2023-04-16T04:39:46.241Z,8.67
2023-04-16T04:42:14.052Z,8.64
2023-04-16T04:44:41.802Z,8.68
2023-04-16T04:47:09.410Z,8.70
2023-04-16T04:49:37.372Z,8.72
2023-04-16T04:52:04.880Z,8.76
2023-04-16T04:54:33.177Z,8.78
2023-04-16T04:57:01.488Z,8.80
2023-04-16T04:59:29.454Z,8.79
2023-04-16T05:01:57.116Z,8.85
2023-04-16T05:04:24.952Z,8.84
2023-04-16T05:06:52.434Z,8.78
2023-04-16T05:09:19.934Z,8.85
2023-04-16T05:11:47.728Z,8.88
2023-04-16T05:14:15.238Z,8.86
2023-04-16T05:16:42.792Z,8.89
2023-04-16T05:19:10.789Z,8.92
2023-04-16T05:21:38.453Z,8.92
2023-04-16T05:24:06.702Z,8.93
2023-04-16T05:26:34.577Z,8.94
2023-04-16T05:29:02.076Z,8.94
2023-04-16T05:31:29.608Z,8.97
2023-04-16T05:33:57.402Z,9.02
2023-04-16T05:36:24.932Z,9.02
2023-04-16T05:38:52.486Z,9.06
2023-04-16T05:41:20.443Z,9.07
2023-04-16T05:43:47.919Z,9.09
2023-04-16T05:46:15.431Z,9.08
2023-04-16T05:48:43.268Z,9.12
2023-04-16T05:51:10.776Z,9.22
2023-04-16T05:53:38.248Z,9.20
2023-04-16T05:56:06.468Z,9.29
2023-04-16T05:58:33.976Z,9.35
2023-04-16T06:01:01.939Z,9.37
2023-04-16T06:03:30.174Z,9.38
2023-04-16T06:05:57.941Z,9.39
2023-04-16T06:08:26.017Z,9.43
2023-04-16T06:10:53.954Z,9.46
2023-04-16T06:13:21.473Z,9.50
2023-04-16T06:15:49.054Z,9.58
2023-04-16T06:18:16.865Z,9.61
2023-04-16T06:20:44.465Z,9.63
2023-04-16T06:23:12.061Z,9.73
2023-04-16T06:25:39.937Z,9.79
2023-04-16T06:28:07.373Z,9.83
2023-04-16T06:30:35.009Z,9.90
2023-04-16T06:33:02.781Z,9.98
2023-04-16T06:35:30.418Z,9.99
2023-04-16T06:37:57.940Z,10.01
2023-04-16T06:40:25.907Z,10.05
2023-04-16T06:42:54.184Z,10.07
2023-04-16T06:45:21.677Z,10.11
2023-04-16T06:47:49.900Z,10.22
2023-04-16T06:50:17.605Z,10.25
2023-04-16T06:52:45.212Z,10.20
2023-04-16T06:55:13.001Z,10.15
2023-04-16T06:57:40.974Z,10.23
2023-04-16T07:00:08.962Z,10.24
2023-04-16T07:02:36.828Z,10.23
2023-04-16T07:05:04.858Z,10.30
2023-04-16T07:07:32.865Z,10.33
2023-04-16T07:10:00.873Z,10.38
2023-04-16T07:12:28.368Z,10.32
2023-04-16T07:14:55.942Z,10.34
2023-04-16T07:17:23.747Z,10.36
2023-04-16T07:19:52.184Z,10.41
2023-04-16T07:22:20.788Z,10.39
2023-04-16T07:24:48.568Z,10.44
2023-04-16T07:27:17.166Z,10.56
2023-04-16T07:29:45.954Z,10.64
2023-04-16T07:32:15.497Z,10.74
2023-04-16T07:34:43.341Z,10.85
2023-04-16T07:37:10.891Z,10.99
2023-04-16T07:39:38.689Z,11.10
2023-04-16T07:42:06.528Z,11.20
2023-04-16T07:44:34.097Z,11.29
2023-04-16T07:47:03.478Z,11.40
2023-04-16T07:49:32.790Z,11.55
2023-04-16T07:52:00.500Z,11.70
2023-04-16T07:54:29.208Z,11.81
2023-04-16T07:56:56.797Z,11.89
2023-04-16T07:59:24.645Z,11.95
2023-04-16T08:01:53.983Z,12.01
2023-04-16T08:04:25.693Z,12.10
2023-04-16T08:06:54.476Z,12.10
2023-04-16T08:09:23.597Z,12.18
2023-04-16T08:11:51.168Z,12.27
2023-04-16T08:14:18.636Z,12.39
2023-04-16T08:16:46.495Z,12.46
2023-04-16T08:19:14.119Z,12.59
2023-04-16T08:21:41.749Z,12.64
2023-04-16T08:24:09.534Z,12.68
2023-04-16T08:26:36.996Z,12.78
2023-04-16T08:29:04.517Z,12.79
2023-04-16T08:31:33.281Z,12.86
2023-04-16T08:34:01.028Z,12.94
2023-04-16T08:36:28.548Z,13.08
2023-04-16T08:38:56.300Z,13.19
2023-04-16T08:41:25.212Z,13.27
2023-04-16T08:43:57.588Z,13.46
2023-04-16T08:46:26.946Z,13.62
2023-04-16T08:48:58.288Z,13.77
2023-04-16T08:51:29.586Z,13.79
2023-04-16T08:54:08.786Z,13.93
2023-04-16T08:56:37.601Z,14.05
2023-04-16T08:59:08.363Z,14.32
2023-04-16T09:01:39.106Z,14.49
2023-04-16T09:04:07.681Z,14.76
2023-04-16T09:06:36.690Z,15.00
2023-04-16T09:09:05.785Z,15.10
2023-04-16T09:11:33.586Z,15.50
2023-04-16T09:14:01.146Z,15.87
2023-04-16T09:16:34.156Z,16.05
2023-04-16T09:19:01.762Z,16.26
2023-04-16T09:21:30.032Z,16.55
2023-04-16T09:23:58.097Z,16.32
2023-04-16T09:26:27.242Z,16.39
2023-04-16T09:28:55.147Z,16.12
2023-04-16T09:31:22.707Z,16.25
2023-04-16T09:34:07.665Z,16.03
2023-04-16T09:36:36.533Z,16.01
2023-04-16T09:39:04.282Z,16.22
2023-04-16T09:41:36.148Z,16.12
2023-04-16T09:44:05.602Z,16.38
2023-04-16T09:46:40.606Z,16.34
2023-04-16T09:49:16.194Z,16.14
2023-04-16T09:51:45.706Z,16.40
2023-04-16T09:54:13.667Z,16.29
2023-04-16T09:56:46.567Z,16.33
2023-04-16T09:59:18.603Z,16.12
2023-04-16T10:01:53.795Z,16.37
2023-04-16T10:04:49.422Z,16.67
2023-04-16T10:07:18.154Z,16.89
2023-04-16T10:09:48.646Z,16.92
2023-04-16T10:12:16.779Z,16.92
2023-04-16T10:14:44.360Z,16.54
2023-04-16T10:17:12.353Z,16.49
2023-04-16T10:19:40.833Z,16.70
2023-04-16T10:22:08.857Z,16.81
2023-04-16T10:24:36.752Z,16.61
2023-04-16T10:27:04.342Z,16.39
2023-04-16T10:29:32.990Z,16.16
2023-04-16T10:32:01.279Z,15.97
2023-04-16T10:34:29.445Z,16.05
2023-04-16T10:36:57.052Z,15.71
2023-04-16T10:39:27.854Z,15.43
2023-04-16T10:42:12.497Z,15.33
2023-04-16T10:44:45.482Z,15.15
2023-04-16T10:47:14.373Z,15.10
2023-04-16T10:49:43.948Z,14.95
2023-04-16T10:52:14.945Z,15.01
2023-04-16T10:54:43.136Z,15.00
2023-04-16T10:57:16.134Z,14.93
2023-04-16T10:59:45.114Z,15.00
2023-04-16T11:02:20.046Z,15.10
2023-04-16T11:04:49.679Z,15.06
2023-04-16T11:07:31.782Z,15.20
2023-04-16T11:10:13.200Z,15.18
2023-04-16T11:12:47.141Z,15.36
2023-04-16T11:15:16.695Z,15.29
2023-04-16T11:17:47.449Z,15.21
2023-04-16T11:20:21.598Z,15.30
2023-04-16T11:22:50.681Z,15.60
2023-04-16T11:25:26.652Z,15.92
2023-04-16T11:27:54.881Z,16.05
2023-04-16T11:30:34.440Z,15.99
2023-04-16T11:33:05.953Z,16.07
2023-04-16T11:35:33.931Z,16.04
2023-04-16T11:38:01.765Z,15.98
2023-04-16T11:40:32.436Z,15.86
2023-04-16T11:43:12.693Z,15.88
2023-04-16T11:45:53.606Z,15.72
2023-04-16T11:48:22.103Z,15.72
2023-04-16T11:50:59.412Z,15.82
2023-04-16T11:53:27.362Z,15.77
2023-04-16T11:55:54.829Z,15.81
2023-04-16T11:58:23.476Z,15.90
2023-04-16T12:00:53.542Z,15.83
2023-04-16T12:03:44.166Z,15.81
2023-04-16T12:06:12.037Z,15.90
2023-04-16T12:08:39.865Z,15.91
2023-04-16T12:11:07.434Z,16.03
2023-04-16T12:13:40.065Z,16.15
2023-04-16T12:16:19.850Z,16.34
2023-04-16T12:19:01.616Z,16.33
2023-04-16T12:21:47.432Z,16.46
2023-04-16T12:24:20.927Z,16.37
2023-04-16T12:26:52.850Z,16.48
2023-04-16T12:29:24.197Z,16.57
2023-04-16T12:31:53.641Z,16.52
2023-04-16T12:34:21.970Z,16.76
2023-04-16T12:37:09.682Z,16.85
2023-04-16T12:39:37.189Z,16.86
2023-04-16T12:42:06.416Z,16.98
2023-04-16T12:44:33.944Z,16.98
2023-04-16T12:47:01.444Z,17.02
2023-04-16T12:49:29.438Z,16.77
2023-04-16T12:51:57.037Z,16.69
2023-04-16T12:54:24.766Z,16.65
2023-04-16T12:56:52.532Z,16.47
2023-04-16T12:59:20.027Z,16.27
2023-04-16T13:01:47.564Z,16.07
2023-04-16T13:04:15.726Z,15.95
2023-04-16T13:06:43.358Z,15.81
2023-04-16T13:09:12.079Z,15.76
2023-04-16T13:11:40.039Z,15.72
2023-04-16T13:14:07.537Z,15.68
2023-04-16T13:16:35.043Z,15.67
2023-04-16T13:19:02.797Z,15.69
2023-04-16T13:21:30.442Z,15.71
2023-04-16T13:23:58.019Z,15.71
2023-04-16T13:26:26.973Z,15.71
2023-04-16T13:28:54.678Z,15.73
2023-04-16T13:31:22.726Z,15.65
2023-04-16T13:33:50.768Z,15.55
2023-04-16T13:36:18.273Z,15.44
2023-04-16T13:38:45.923Z,15.38
2023-04-16T13:41:13.750Z,15.38
2023-04-16T13:43:41.478Z,15.36
2023-04-16T13:46:09.048Z,15.31
2023-04-16T13:48:36.906Z,15.30
2023-04-16T13:51:04.353Z,15.31
2023-04-16T13:53:31.926Z,15.29
2023-04-16T13:56:00.014Z,15.24
2023-04-16T13:58:27.576Z,15.21
2023-04-16T14:00:55.807Z,15.14
2023-04-16T14:03:25.818Z,15.09
2023-04-16T14:05:53.351Z,15.05
2023-04-16T14:08:21.744Z,15.03
2023-04-16T14:10:49.568Z,15.02
2023-04-16T14:13:17.224Z,14.93
2023-04-16T14:15:44.730Z,14.94
2023-04-16T14:18:12.551Z,14.91
2023-04-16T14:20:40.838Z,14.86
2023-04-16T14:23:08.308Z,14.91
2023-04-16T14:25:36.190Z,14.95
2023-04-16T14:28:03.876Z,15.00
2023-04-16T14:30:31.614Z,15.02
2023-04-16T14:32:59.542Z,15.03
2023-04-16T14:35:27.116Z,15.06
2023-04-16T14:37:54.626Z,15.00
2023-04-16T14:40:22.468Z,15.07
2023-04-16T14:42:49.930Z,15.08
2023-04-16T14:45:17.460Z,14.99
2023-04-16T14:47:48.383Z,14.91
2023-04-16T14:50:16.193Z,14.89
2023-04-16T14:52:43.667Z,14.85
2023-04-16T14:55:11.483Z,14.80
2023-04-16T14:57:39.315Z,14.75
2023-04-16T15:00:09.522Z,14.77
2023-04-16T15:02:37.987Z,14.78
2023-04-16T15:05:07.907Z,14.77
2023-04-16T15:07:35.430Z,14.82
2023-04-16T15:10:03.911Z,14.89
2023-04-16T15:12:31.473Z,14.87
2023-04-16T15:14:59.926Z,14.95
2023-04-16T15:17:27.761Z,15.02
2023-04-16T15:19:55.289Z,14.97
2023-04-16T15:22:22.802Z,15.03
2023-04-16T15:24:50.926Z,15.13
2023-04-16T15:27:19.423Z,15.13
2023-04-16T15:29:49.477Z,15.18
2023-04-16T15:32:17.453Z,15.09
2023-04-16T15:34:46.509Z,15.02
2023-04-16T15:37:14.224Z,15.06
2023-04-16T15:39:42.137Z,15.02
2023-04-16T15:42:11.200Z,14.99
2023-04-16T15:44:38.918Z,14.92
2023-04-16T15:47:08.518Z,14.93
2023-04-16T15:49:36.448Z,14.97
2023-04-16T15:52:04.369Z,14.94
2023-04-16T15:54:32.265Z,14.87
2023-04-16T15:56:59.788Z,14.77
2023-04-16T15:59:27.342Z,14.75
2023-04-16T16:01:55.451Z,14.77
2023-04-16T16:04:23.478Z,14.69
2023-04-16T16:06:51.219Z,14.70
2023-04-16T16:09:25.689Z,14.59
2023-04-16T16:11:54.424Z,14.59
2023-04-16T16:14:22.730Z,14.59
2023-04-16T16:16:50.201Z,14.55
2023-04-16T16:19:18.032Z,14.49
2023-04-16T16:21:45.529Z,14.45
2023-04-16T16:24:13.963Z,14.42
2023-04-16T16:26:41.961Z,14.38
2023-04-16T16:29:09.841Z,14.35
2023-04-16T16:31:37.559Z,14.29
2023-04-16T16:34:05.486Z,14.27
2023-04-16T16:36:36.789Z,14.15
2023-04-16T16:39:04.823Z,14.14
2023-04-16T16:41:32.819Z,14.75
2023-04-16T16:44:00.211Z,15.05
2023-04-16T16:46:27.706Z,15.49
2023-04-16T16:48:55.522Z,15.82
2023-04-16T16:51:23.044Z,16.11
2023-04-16T16:53:50.637Z,16.34
2023-04-16T16:56:18.417Z,16.57
2023-04-16T16:58:46.446Z,16.75
2023-04-16T17:01:14.125Z,16.24
2023-04-16T17:03:42.148Z,15.81
2023-04-16T17:06:09.991Z,15.50
2023-04-16T17:08:37.548Z,15.23
2023-04-16T17:11:05.581Z,15.06
2023-04-16T17:13:33.073Z,14.85
2023-04-16T17:16:01.086Z,14.74
2023-04-16T17:18:28.934Z,14.60
2023-04-16T17:20:56.560Z,14.50
2023-04-16T17:23:24.106Z,14.41
2023-04-16T17:25:51.899Z,14.32
2023-04-16T17:28:20.824Z,14.18
2023-04-16T17:30:53.259Z,14.13
2023-04-16T17:33:21.306Z,14.07
2023-04-16T17:35:48.877Z,14.03
2023-04-16T17:38:16.412Z,13.94
2023-04-16T17:40:44.260Z,13.95
2023-04-16T17:43:11.739Z,13.87
2023-04-16T17:45:39.308Z,13.84
2023-04-16T17:48:07.218Z,13.80
2023-04-16T17:50:35.130Z,13.70
2023-04-16T17:53:03.698Z,13.68
2023-04-16T17:55:31.709Z,13.59
2023-04-16T17:58:00.427Z,13.58
2023-04-16T18:00:28.291Z,13.53
2023-04-16T18:02:57.848Z,13.54
2023-04-16T18:05:25.937Z,13.49
2023-04-16T18:07:53.600Z,13.42
2023-04-16T18:10:21.550Z,13.36
2023-04-16T18:12:49.127Z,13.31
2023-04-16T18:15:16.868Z,13.30
2023-04-16T18:17:44.689Z,13.31
2023-04-16T18:20:12.711Z,13.27
2023-04-16T18:22:40.430Z,13.25
2023-04-16T18:25:08.934Z,13.23
2023-04-16T18:27:36.464Z,13.18
2023-04-16T18:30:05.261Z,13.12
2023-04-16T18:32:33.774Z,13.07
2023-04-16T18:35:01.490Z,13.07
2023-04-16T18:37:28.950Z,12.99
2023-04-16T18:39:58.010Z,12.96
2023-04-16T18:42:29.429Z,12.89
2023-04-16T18:44:59.350Z,12.86
2023-04-16T18:47:27.075Z,12.82
2023-04-16T18:49:55.038Z,12.77
2023-04-16T18:52:22.870Z,12.75
2023-04-16T18:54:50.511Z,12.72
2023-04-16T18:57:18.028Z,12.73
2023-04-16T18:59:45.890Z,12.64
2023-04-16T19:02:13.779Z,12.66
2023-04-16T19:04:41.978Z,12.59
2023-04-16T19:07:09.794Z,12.56
2023-04-16T19:09:37.411Z,12.58
2023-04-16T19:12:05.176Z,12.58
2023-04-16T19:14:33.068Z,12.55
2023-04-16T19:17:00.549Z,12.55
2023-04-16T19:19:28.011Z,12.51
2023-04-16T19:21:56.011Z,12.49
2023-04-16T19:24:23.618Z,12.47
2023-04-16T19:26:51.127Z,12.40
2023-04-16T19:29:19.126Z,12.40
2023-04-16T19:31:47.220Z,12.34
2023-04-16T19:34:15.569Z,12.31
2023-04-16T19:36:44.539Z,12.26
2023-04-16T19:39:12.206Z,12.26
2023-04-16T19:41:39.752Z,12.19
2023-04-16T19:44:07.659Z,12.16
2023-04-16T19:46:35.207Z,12.06
2023-04-16T19:49:03.702Z,12.01
2023-04-16T19:51:31.625Z,12.01
2023-04-16T19:53:59.143Z,11.94
2023-04-16T19:56:27.227Z,11.89
2023-04-16T19:58:55.024Z,11.90
2023-04-16T20:01:23.339Z,11.88
2023-04-16T20:03:51.199Z,11.81
2023-04-16T20:06:18.739Z,11.81
2023-04-16T20:08:46.662Z,11.73
2023-04-16T20:11:14.541Z,11.69
2023-04-16T20:13:43.196Z,11.69
2023-04-16T20:16:13.619Z,11.65
2023-04-16T20:18:42.553Z,11.66
2023-04-16T20:21:10.530Z,11.59
2023-04-16T20:23:38.069Z,11.56
2023-04-16T20:26:06.370Z,11.54
2023-04-16T20:28:33.882Z,11.57
2023-04-16T20:31:01.375Z,11.55
2023-04-16T20:33:29.227Z,11.57
2023-04-16T20:35:56.716Z,11.50
2023-04-16T20:38:24.191Z,11.49
2023-04-16T20:41:06.580Z,11.43
2023-04-16T20:43:44.025Z,11.39
2023-04-16T20:46:12.520Z,11.31
2023-04-16T20:48:40.139Z,11.31
2023-04-16T20:51:09.552Z,11.31
2023-04-16T20:53:37.784Z,11.31
2023-04-16T20:56:06.783Z,11.26
2023-04-16T20:58:34.339Z,11.21
2023-04-16T21:01:02.154Z,11.18
2023-04-16T21:03:29.784Z,11.14
2023-04-16T21:05:57.406Z,11.10
2023-04-16T21:08:25.365Z,11.08
2023-04-16T21:10:52.836Z,11.07
2023-04-16T21:13:21.076Z,11.10
2023-04-16T21:15:48.928Z,11.06
2023-04-16T21:18:18.563Z,10.99
2023-04-16T21:20:46.192Z,11.00
2023-04-16T21:23:14.014Z,10.94
2023-04-16T21:25:41.553Z,10.92
2023-04-16T21:28:09.133Z,10.93
2023-04-16T21:30:37.042Z,10.97
2023-04-16T21:33:04.571Z,10.92
2023-04-16T21:35:33.184Z,10.85
2023-04-16T21:38:01.047Z,10.86
2023-04-16T21:40:28.517Z,10.85
2023-04-16T21:42:55.974Z,10.83
2023-04-16T21:45:23.763Z,10.82
2023-04-16T21:47:51.235Z,10.84
2023-04-16T21:50:18.789Z,10.82
2023-04-16T21:52:46.879Z,10.83
2023-04-16T21:55:15.019Z,10.82
2023-04-16T21:57:42.559Z,10.77
2023-04-16T22:00:14.251Z,10.83
2023-04-16T22:02:42.680Z,10.82
2023-04-16T22:05:11.836Z,10.78
2023-04-16T22:07:39.341Z,10.83
2023-04-16T22:10:08.834Z,10.77
2023-04-16T22:12:37.927Z,10.73
2023-04-16T22:15:09.179Z,10.75
2023-04-16T22:17:37.094Z,10.73
2023-04-16T22:20:14.670Z,10.70
2023-04-16T22:22:42.689Z,10.70
2023-04-16T22:25:10.995Z,10.72
2023-04-16T22:27:38.940Z,10.75
2023-04-16T22:30:08.391Z,10.75
2023-04-16T22:32:36.091Z,10.71
2023-04-16T22:35:03.815Z,10.73
2023-04-16T22:37:31.698Z,10.71
2023-04-16T22:39:59.317Z,10.71
2023-04-16T22:42:27.294Z,10.70
2023-04-16T22:44:55.176Z,10.69
2023-04-16T22:47:22.829Z,10.68
2023-04-16T22:49:50.346Z,10.71
2023-04-16T22:52:18.385Z,10.71
2023-04-16T22:54:45.895Z,10.68
2023-04-16T22:57:13.432Z,10.67
2023-04-16T22:59:41.202Z,10.67
2023-04-16T23:02:08.775Z,10.68
2023-04-16T23:04:36.319Z,10.67
2023-04-16T23:07:04.112Z,10.69
2023-04-16T23:09:32.943Z,10.66
2023-04-16T23:12:00.452Z,10.68
2023-04-16T23:14:29.129Z,10.70
2023-04-16T23:16:56.607Z,10.66
2023-04-16T23:19:24.068Z,10.65
2023-04-16T23:21:51.861Z,10.65
2023-04-16T23:24:19.308Z,10.63
2023-04-16T23:26:48.042Z,10.66
2023-04-16T23:29:15.916Z,10.68
2023-04-16T23:31:43.461Z,10.68
2023-04-16T23:34:11.368Z,10.69
2023-04-16T23:36:39.400Z,10.72
2023-04-16T23:39:06.904Z,10.70
2023-04-16T23:41:34.891Z,10.70
2023-04-16T23:44:02.798Z,10.68
2023-04-16T23:46:30.653Z,10.68
2023-04-16T23:48:58.260Z,10.66
2023-04-16T23:51:26.700Z,10.64
2023-04-16T23:53:54.195Z,10.62
2023-04-16T23:56:21.758Z,10.60
2023-04-16T23:58:49.577Z,10.55
